sensor_id;sensor_type;location;lat;lon;timestamp;noise_LAeq;noise_LA_min;noise_LA_max;noise_LA01;noise_LA95
72028;Laerm;59781;52.090;5.030;2023-06-22T00:01:59;37.73;36.22;40.43;;
72028;Laerm;59781;52.090;5.030;2023-06-22T00:04:25;37.71;35.85;39.67;;
72028;Laerm;59781;52.090;5.030;2023-06-22T00:06:50;38.68;36.16;46.91;;
72028;Laerm;59781;52.090;5.030;2023-06-22T00:09:16;37.85;36.23;47.00;;
72028;Laerm;59781;52.090;5.030;2023-06-22T00:11:42;37.93;36.35;41.30;;
72028;Laerm;59781;52.090;5.030;2023-06-22T00:14:08;38.09;36.18;40.81;;
72028;Laerm;59781;52.090;5.030;2023-06-22T00:16:33;37.94;36.27;43.74;;
72028;Laerm;59781;52.090;5.030;2023-06-22T00:19:00;37.80;36.25;41.34;;
72028;Laerm;59781;52.090;5.030;2023-06-22T00:21:27;37.70;36.22;40.27;;
72028;Laerm;59781;52.090;5.030;2023-06-22T00:23:53;37.64;36.12;40.69;;
72028;Laerm;59781;52.090;5.030;2023-06-22T00:26:19;37.89;35.92;42.09;;
72028;Laerm;59781;52.090;5.030;2023-06-22T00:28:45;37.68;35.90;39.22;;
72028;Laerm;59781;52.090;5.030;2023-06-22T00:31:10;38.04;36.08;43.83;;
72028;Laerm;59781;52.090;5.030;2023-06-22T00:33:36;37.50;36.14;40.07;;
72028;Laerm;59781;52.090;5.030;2023-06-22T00:36:06;37.72;35.86;44.65;;
72028;Laerm;59781;52.090;5.030;2023-06-22T00:38:34;37.67;36.18;40.15;;
72028;Laerm;59781;52.090;5.030;2023-06-22T00:41:01;37.78;36.19;41.21;;
72028;Laerm;59781;52.090;5.030;2023-06-22T00:43:26;37.45;36.04;39.58;;
72028;Laerm;59781;52.090;5.030;2023-06-22T00:45:52;37.54;35.97;41.34;;
72028;Laerm;59781;52.090;5.030;2023-06-22T00:48:18;37.50;36.11;41.23;;
72028;Laerm;59781;52.090;5.030;2023-06-22T00:50:47;37.72;35.98;46.21;;
72028;Laerm;59781;52.090;5.030;2023-06-22T00:53:18;37.61;36.00;45.16;;
72028;Laerm;59781;52.090;5.030;2023-06-22T00:55:45;37.73;36.00;42.38;;
72028;Laerm;59781;52.090;5.030;2023-06-22T00:58:12;37.48;35.68;40.87;;
72028;Laerm;59781;52.090;5.030;2023-06-22T01:00:40;37.46;36.01;45.21;;
72028;Laerm;59781;52.090;5.030;2023-06-22T01:03:07;37.51;36.03;38.95;;
72028;Laerm;59781;52.090;5.030;2023-06-22T01:05:37;37.48;35.91;46.19;;
72028;Laerm;59781;52.090;5.030;2023-06-22T01:08:18;37.58;35.91;39.48;;
72028;Laerm;59781;52.090;5.030;2023-06-22T01:11:08;37.57;36.09;39.67;;
72028;Laerm;59781;52.090;5.030;2023-06-22T01:16:31;40.32;35.26;50.75;;
72028;Laerm;59781;52.090;5.030;2023-06-22T01:19:55;37.88;35.81;43.63;;
72028;Laerm;59781;52.090;5.030;2023-06-22T01:22:00;37.65;35.96;40.09;;
72028;Laerm;59781;52.090;5.030;2023-06-22T01:25:07;38.78;36.16;46.94;;
72028;Laerm;59781;52.090;5.030;2023-06-22T01:28:04;37.77;35.75;43.74;;
72028;Laerm;59781;52.090;5.030;2023-06-22T01:30:32;37.73;36.02;40.12;;
72028;Laerm;59781;52.090;5.030;2023-06-22T01:33:04;37.77;36.04;40.12;;
72028;Laerm;59781;52.090;5.030;2023-06-22T01:35:31;37.68;36.23;40.61;;
72028;Laerm;59781;52.090;5.030;2023-06-22T01:38:01;37.70;36.13;39.28;;
72028;Laerm;59781;52.090;5.030;2023-06-22T01:40:29;37.93;36.17;40.99;;
72028;Laerm;59781;52.090;5.030;2023-06-22T01:42:55;37.80;36.22;39.87;;
72028;Laerm;59781;52.090;5.030;2023-06-22T01:45:22;37.56;36.21;39.91;;
72028;Laerm;59781;52.090;5.030;2023-06-22T01:47:49;37.67;35.93;43.12;;
72028;Laerm;59781;52.090;5.030;2023-06-22T01:50:15;37.34;35.96;39.13;;
72028;Laerm;59781;52.090;5.030;2023-06-22T01:52:41;37.60;35.73;42.07;;
72028;Laerm;59781;52.090;5.030;2023-06-22T01:55:07;37.41;35.70;39.16;;
72028;Laerm;59781;52.090;5.030;2023-06-22T01:57:33;37.69;36.11;42.48;;
72028;Laerm;59781;52.090;5.030;2023-06-22T02:00:04;38.26;36.36;47.32;;
72028;Laerm;59781;52.090;5.030;2023-06-22T02:05:20;37.63;35.95;44.21;;
72028;Laerm;59781;52.090;5.030;2023-06-22T02:08:09;38.10;36.47;44.13;;
72028;Laerm;59781;52.090;5.030;2023-06-22T02:10:38;38.48;36.32;46.93;;
72028;Laerm;59781;52.090;5.030;2023-06-22T02:13:10;38.60;36.40;48.27;;
72028;Laerm;59781;52.090;5.030;2023-06-22T02:15:37;38.67;35.98;48.99;;
72028;Laerm;59781;52.090;5.030;2023-06-22T02:18:03;38.56;36.27;46.71;;
72028;Laerm;59781;52.090;5.030;2023-06-22T02:20:30;39.02;35.96;47.87;;
72028;Laerm;59781;52.090;5.030;2023-06-22T02:22:56;38.76;36.56;46.95;;
72028;Laerm;59781;52.090;5.030;2023-06-22T02:25:22;39.01;36.52;52.36;;
72028;Laerm;59781;52.090;5.030;2023-06-22T02:27:47;39.23;36.51;48.13;;
72028;Laerm;59781;52.090;5.030;2023-06-22T02:30:15;39.58;36.85;48.26;;
72028;Laerm;59781;52.090;5.030;2023-06-22T02:32:42;40.44;36.68;56.38;;
72028;Laerm;59781;52.090;5.030;2023-06-22T02:35:11;41.11;36.79;51.72;;
72028;Laerm;59781;52.090;5.030;2023-06-22T02:37:38;41.21;36.95;53.58;;
72028;Laerm;59781;52.090;5.030;2023-06-22T02:40:08;40.41;37.18;54.28;;
72028;Laerm;59781;52.090;5.030;2023-06-22T02:42:35;41.66;36.92;55.61;;
72028;Laerm;59781;52.090;5.030;2023-06-22T02:45:01;40.53;36.97;56.05;;
72028;Laerm;59781;52.090;5.030;2023-06-22T02:47:27;39.79;36.83;53.07;;
72028;Laerm;59781;52.090;5.030;2023-06-22T02:49:53;40.99;37.19;54.20;;
72028;Laerm;59781;52.090;5.030;2023-06-22T02:52:19;41.86;37.03;55.01;;
72028;Laerm;59781;52.090;5.030;2023-06-22T02:54:45;40.02;37.76;51.14;;
72028;Laerm;59781;52.090;5.030;2023-06-22T02:57:12;49.07;37.44;80.82;;
72028;Laerm;59781;52.090;5.030;2023-06-22T02:59:40;40.90;37.16;58.21;;
72028;Laerm;59781;52.090;5.030;2023-06-22T03:02:09;39.73;37.42;53.87;;
72028;Laerm;59781;52.090;5.030;2023-06-22T03:04:35;39.88;37.93;44.71;;
72028;Laerm;59781;52.090;5.030;2023-06-22T03:07:02;42.18;37.20;64.52;;
72028;Laerm;59781;52.090;5.030;2023-06-22T03:09:29;40.71;37.78;60.89;;
72028;Laerm;59781;52.090;5.030;2023-06-22T03:11:56;42.22;38.09;62.08;;
72028;Laerm;59781;52.090;5.030;2023-06-22T03:14:25;42.44;37.97;58.12;;
72028;Laerm;59781;52.090;5.030;2023-06-22T03:16:52;39.95;37.69;44.59;;
72028;Laerm;59781;52.090;5.030;2023-06-22T03:19:18;42.99;38.07;67.85;;
72028;Laerm;59781;52.090;5.030;2023-06-22T03:21:45;41.42;38.94;44.50;;
72028;Laerm;59781;52.090;5.030;2023-06-22T03:24:10;40.80;37.81;45.98;;
72028;Laerm;59781;52.090;5.030;2023-06-22T03:26:37;41.30;38.25;56.66;;
72028;Laerm;59781;52.090;5.030;2023-06-22T03:29:03;41.63;38.70;54.72;;
72028;Laerm;59781;52.090;5.030;2023-06-22T03:31:30;41.75;38.93;52.02;;
72028;Laerm;59781;52.090;5.030;2023-06-22T03:33:56;42.43;38.72;54.72;;
72028;Laerm;59781;52.090;5.030;2023-06-22T03:36:23;42.39;39.27;53.83;;
72028;Laerm;59781;52.090;5.030;2023-06-22T03:38:50;43.00;39.39;53.91;;
72028;Laerm;59781;52.090;5.030;2023-06-22T03:41:17;42.07;38.52;55.57;;
72028;Laerm;59781;52.090;5.030;2023-06-22T03:43:43;44.59;39.66;57.56;;
72028;Laerm;59781;52.090;5.030;2023-06-22T03:46:09;44.23;39.79;58.65;;
72028;Laerm;59781;52.090;5.030;2023-06-22T03:48:34;44.01;39.29;64.77;;
72028;Laerm;59781;52.090;5.030;2023-06-22T03:51:02;45.37;38.62;65.54;;
72028;Laerm;59781;52.090;5.030;2023-06-22T03:53:29;47.26;38.33;67.69;;
72028;Laerm;59781;52.090;5.030;2023-06-22T03:55:55;41.03;38.58;44.85;;
72028;Laerm;59781;52.090;5.030;2023-06-22T03:58:21;41.28;38.61;44.00;;
72028;Laerm;59781;52.090;5.030;2023-06-22T04:00:50;41.62;38.42;45.80;;
72028;Laerm;59781;52.090;5.030;2023-06-22T04:03:16;42.15;39.08;58.49;;
72028;Laerm;59781;52.090;5.030;2023-06-22T04:05:45;41.98;38.85;57.68;;
72028;Laerm;59781;52.090;5.030;2023-06-22T04:08:13;41.40;38.38;55.87;;
72028;Laerm;59781;52.090;5.030;2023-06-22T04:10:39;41.77;38.58;54.88;;
72028;Laerm;59781;52.090;5.030;2023-06-22T04:13:05;41.98;38.90;54.99;;
72028;Laerm;59781;52.090;5.030;2023-06-22T04:15:31;42.75;38.86;60.25;;
72028;Laerm;59781;52.090;5.030;2023-06-22T04:17:56;41.73;38.70;56.12;;
72028;Laerm;59781;52.090;5.030;2023-06-22T04:20:23;41.68;38.37;57.84;;
72028;Laerm;59781;52.090;5.030;2023-06-22T04:22:54;41.92;38.44;55.39;;
72028;Laerm;59781;52.090;5.030;2023-06-22T04:25:21;42.28;38.45;56.44;;
72028;Laerm;59781;52.090;5.030;2023-06-22T04:27:47;41.70;38.81;51.91;;
72028;Laerm;59781;52.090;5.030;2023-06-22T04:30:14;41.55;38.24;59.37;;
72028;Laerm;59781;52.090;5.030;2023-06-22T04:32:44;43.72;38.12;53.45;;
72028;Laerm;59781;52.090;5.030;2023-06-22T04:35:11;40.91;38.05;57.53;;
72028;Laerm;59781;52.090;5.030;2023-06-22T04:37:37;41.47;38.86;45.40;;
72028;Laerm;59781;52.090;5.030;2023-06-22T04:40:05;43.06;38.55;57.80;;
72028;Laerm;59781;52.090;5.030;2023-06-22T04:42:34;41.39;38.29;52.61;;
72028;Laerm;59781;52.090;5.030;2023-06-22T04:45:01;41.64;38.99;51.37;;
72028;Laerm;59781;52.090;5.030;2023-06-22T04:47:26;41.70;38.90;60.98;;
72028;Laerm;59781;52.090;5.030;2023-06-22T04:49:52;41.86;38.91;57.07;;
72028;Laerm;59781;52.090;5.030;2023-06-22T04:52:18;41.79;38.83;57.58;;
72028;Laerm;59781;52.090;5.030;2023-06-22T04:54:45;43.11;38.27;57.88;;
72028;Laerm;59781;52.090;5.030;2023-06-22T04:57:21;41.22;38.22;56.56;;
72028;Laerm;59781;52.090;5.030;2023-06-22T04:59:50;42.39;38.06;62.62;;
72028;Laerm;59781;52.090;5.030;2023-06-22T05:02:16;40.18;37.54;48.09;;
72028;Laerm;59781;52.090;5.030;2023-06-22T05:04:41;41.31;37.65;51.82;;
72028;Laerm;59781;52.090;5.030;2023-06-22T05:07:07;41.24;38.48;46.53;;
72028;Laerm;59781;52.090;5.030;2023-06-22T05:09:33;41.27;37.98;53.80;;
72028;Laerm;59781;52.090;5.030;2023-06-22T05:11:59;43.34;38.80;59.56;;
72028;Laerm;59781;52.090;5.030;2023-06-22T05:14:28;45.92;39.25;60.60;;
72028;Laerm;59781;52.090;5.030;2023-06-22T05:16:55;42.04;38.63;58.90;;
72028;Laerm;59781;52.090;5.030;2023-06-22T05:19:25;43.30;38.75;56.56;;
72028;Laerm;59781;52.090;5.030;2023-06-22T05:21:56;44.52;38.90;55.72;;
72028;Laerm;59781;52.090;5.030;2023-06-22T05:24:22;42.70;38.94;59.71;;
72028;Laerm;59781;52.090;5.030;2023-06-22T05:26:48;41.92;38.71;50.12;;
72028;Laerm;59781;52.090;5.030;2023-06-22T05:29:13;44.73;38.80;53.79;;
72028;Laerm;59781;52.090;5.030;2023-06-22T05:31:39;45.71;38.73;60.55;;
72028;Laerm;59781;52.090;5.030;2023-06-22T05:34:06;49.36;38.66;68.45;;
72028;Laerm;59781;52.090;5.030;2023-06-22T05:36:31;44.08;39.28;67.44;;
72028;Laerm;59781;52.090;5.030;2023-06-22T05:38:57;42.37;38.75;54.44;;
72028;Laerm;59781;52.090;5.030;2023-06-22T05:41:23;43.15;39.05;58.00;;
72028;Laerm;59781;52.090;5.030;2023-06-22T05:43:49;46.21;39.93;75.84;;
72028;Laerm;59781;52.090;5.030;2023-06-22T05:46:16;44.89;39.01;59.04;;
72028;Laerm;59781;52.090;5.030;2023-06-22T05:48:42;43.68;39.39;56.36;;
72028;Laerm;59781;52.090;5.030;2023-06-22T05:51:08;53.70;38.73;86.49;;
72028;Laerm;59781;52.090;5.030;2023-06-22T05:53:33;42.71;39.51;57.18;;
72028;Laerm;59781;52.090;5.030;2023-06-22T05:55:59;43.67;39.23;60.62;;
72028;Laerm;59781;52.090;5.030;2023-06-22T05:58:25;42.72;39.39;58.08;;
72028;Laerm;59781;52.090;5.030;2023-06-22T06:00:50;42.99;39.20;51.81;;
72028;Laerm;59781;52.090;5.030;2023-06-22T06:03:16;43.79;39.03;57.71;;
72028;Laerm;59781;52.090;5.030;2023-06-22T06:05:44;44.09;38.86;60.87;;
72028;Laerm;59781;52.090;5.030;2023-06-22T06:08:11;43.09;38.28;58.51;;
72028;Laerm;59781;52.090;5.030;2023-06-22T06:10:38;45.53;38.57;71.69;;
72028;Laerm;59781;52.090;5.030;2023-06-22T06:13:03;43.02;38.79;61.74;;
72028;Laerm;59781;52.090;5.030;2023-06-22T06:15:31;43.23;38.95;63.21;;
72028;Laerm;59781;52.090;5.030;2023-06-22T06:17:58;42.29;38.95;55.80;;
72028;Laerm;59781;52.090;5.030;2023-06-22T06:20:26;41.86;38.07;60.29;;
72028;Laerm;59781;52.090;5.030;2023-06-22T06:22:53;42.81;38.86;57.43;;
72028;Laerm;59781;52.090;5.030;2023-06-22T06:25:19;41.84;38.09;51.19;;
72028;Laerm;59781;52.090;5.030;2023-06-22T06:27:49;42.83;38.00;50.68;;
72028;Laerm;59781;52.090;5.030;2023-06-22T06:30:18;41.85;37.46;54.80;;
72028;Laerm;59781;52.090;5.030;2023-06-22T06:32:46;40.51;37.53;53.57;;
72028;Laerm;59781;52.090;5.030;2023-06-22T06:35:14;41.72;37.68;56.82;;
72028;Laerm;59781;52.090;5.030;2023-06-22T06:37:44;44.21;38.16;61.17;;
72028;Laerm;59781;52.090;5.030;2023-06-22T06:40:12;41.33;37.63;54.86;;
72028;Laerm;59781;52.090;5.030;2023-06-22T06:42:43;43.19;38.03;62.99;;
72028;Laerm;59781;52.090;5.030;2023-06-22T06:45:23;43.06;37.87;53.94;;
72028;Laerm;59781;52.090;5.030;2023-06-22T06:47:51;41.45;36.80;59.91;;
72028;Laerm;59781;52.090;5.030;2023-06-22T06:50:18;42.49;37.73;62.47;;
72028;Laerm;59781;52.090;5.030;2023-06-22T06:52:44;42.02;38.30;52.84;;
72028;Laerm;59781;52.090;5.030;2023-06-22T06:55:10;41.55;37.22;60.87;;
72028;Laerm;59781;52.090;5.030;2023-06-22T06:57:41;43.76;39.34;60.58;;
72028;Laerm;59781;52.090;5.030;2023-06-22T07:00:12;40.52;36.82;56.40;;
72028;Laerm;59781;52.090;5.030;2023-06-22T07:02:41;40.80;37.10;51.81;;
72028;Laerm;59781;52.090;5.030;2023-06-22T07:05:08;39.63;36.70;51.36;;
72028;Laerm;59781;52.090;5.030;2023-06-22T07:07:34;41.39;37.16;50.62;;
72028;Laerm;59781;52.090;5.030;2023-06-22T07:10:01;39.98;36.72;52.05;;
72028;Laerm;59781;52.090;5.030;2023-06-22T07:12:27;45.46;37.30;61.11;;
72028;Laerm;59781;52.090;5.030;2023-06-22T07:14:53;42.83;37.10;55.75;;
72028;Laerm;59781;52.090;5.030;2023-06-22T07:17:19;47.80;37.25;70.44;;
72028;Laerm;59781;52.090;5.030;2023-06-22T07:19:45;44.64;37.66;66.50;;
72028;Laerm;59781;52.090;5.030;2023-06-22T07:22:11;44.13;37.12;66.18;;
72028;Laerm;59781;52.090;5.030;2023-06-22T07:24:36;40.52;36.64;56.52;;
72028;Laerm;59781;52.090;5.030;2023-06-22T07:27:03;45.95;36.75;61.17;;
72028;Laerm;59781;52.090;5.030;2023-06-22T07:29:29;41.44;36.64;60.16;;
72028;Laerm;59781;52.090;5.030;2023-06-22T07:31:55;41.08;36.35;61.07;;
72028;Laerm;59781;52.090;5.030;2023-06-22T07:34:22;39.27;36.72;46.36;;
72028;Laerm;59781;52.090;5.030;2023-06-22T07:36:48;39.82;36.92;59.88;;
72028;Laerm;59781;52.090;5.030;2023-06-22T07:39:14;39.96;36.86;44.51;;
72028;Laerm;59781;52.090;5.030;2023-06-22T07:41:40;39.96;37.05;55.13;;
72028;Laerm;59781;52.090;5.030;2023-06-22T07:44:06;40.30;37.12;57.18;;
72028;Laerm;59781;52.090;5.030;2023-06-22T07:46:33;41.12;37.21;59.29;;
72028;Laerm;59781;52.090;5.030;2023-06-22T07:48:59;41.84;36.97;56.46;;
72028;Laerm;59781;52.090;5.030;2023-06-22T07:51:25;40.71;36.86;50.19;;
72028;Laerm;59781;52.090;5.030;2023-06-22T07:53:52;40.12;36.90;49.65;;
72028;Laerm;59781;52.090;5.030;2023-06-22T07:56:17;40.90;36.94;50.39;;
72028;Laerm;59781;52.090;5.030;2023-06-22T07:58:46;40.49;36.82;56.33;;
72028;Laerm;59781;52.090;5.030;2023-06-22T08:01:13;50.72;37.59;79.98;;
72028;Laerm;59781;52.090;5.030;2023-06-22T08:03:39;44.15;37.24;61.07;;
72028;Laerm;59781;52.090;5.030;2023-06-22T08:06:05;41.31;37.89;53.92;;
72028;Laerm;59781;52.090;5.030;2023-06-22T08:08:31;42.17;37.81;58.99;;
72028;Laerm;59781;52.090;5.030;2023-06-22T08:10:57;47.67;37.64;59.77;;
72028;Laerm;59781;52.090;5.030;2023-06-22T08:13:23;45.48;40.56;54.63;;
72028;Laerm;59781;52.090;5.030;2023-06-22T08:15:49;49.26;38.92;60.99;;
72028;Laerm;59781;52.090;5.030;2023-06-22T08:18:15;39.63;36.90;54.79;;
72028;Laerm;59781;52.090;5.030;2023-06-22T08:20:42;43.08;37.56;57.30;;
72028;Laerm;59781;52.090;5.030;2023-06-22T08:23:08;43.00;36.76;57.89;;
72028;Laerm;59781;52.090;5.030;2023-06-22T08:25:34;41.02;36.32;64.07;;
72028;Laerm;59781;52.090;5.030;2023-06-22T08:28:03;43.75;37.90;56.26;;
72028;Laerm;59781;52.090;5.030;2023-06-22T08:30:30;40.41;36.82;53.79;;
72028;Laerm;59781;52.090;5.030;2023-06-22T08:32:55;42.19;36.89;65.63;;
72028;Laerm;59781;52.090;5.030;2023-06-22T08:35:23;40.06;36.91;46.84;;
72028;Laerm;59781;52.090;5.030;2023-06-22T08:37:48;41.25;37.76;56.12;;
72028;Laerm;59781;52.090;5.030;2023-06-22T08:40:22;49.61;37.59;65.97;;
72028;Laerm;59781;52.090;5.030;2023-06-22T08:42:48;40.51;36.67;52.09;;
72028;Laerm;59781;52.090;5.030;2023-06-22T08:45:15;39.22;36.31;53.83;;
72028;Laerm;59781;52.090;5.030;2023-06-22T08:47:41;40.27;36.64;48.31;;
72028;Laerm;59781;52.090;5.030;2023-06-22T08:50:12;40.86;37.10;51.17;;
72028;Laerm;59781;52.090;5.030;2023-06-22T08:52:40;52.44;38.89;67.36;;
72028;Laerm;59781;52.090;5.030;2023-06-22T08:55:09;43.99;37.66;57.10;;
72028;Laerm;59781;52.090;5.030;2023-06-22T08:57:36;39.67;36.68;46.93;;
72028;Laerm;59781;52.090;5.030;2023-06-22T09:00:09;41.39;36.60;53.36;;
72028;Laerm;59781;52.090;5.030;2023-06-22T09:02:42;41.73;37.72;56.56;;
72028;Laerm;59781;52.090;5.030;2023-06-22T09:05:09;48.13;36.84;65.91;;
72028;Laerm;59781;52.090;5.030;2023-06-22T09:07:34;40.70;37.22;52.27;;
72028;Laerm;59781;52.090;5.030;2023-06-22T09:10:00;47.95;37.93;66.03;;
72028;Laerm;59781;52.090;5.030;2023-06-22T09:12:26;45.35;36.79;76.47;;
72028;Laerm;59781;52.090;5.030;2023-06-22T09:14:53;44.64;37.20;54.68;;
72028;Laerm;59781;52.090;5.030;2023-06-22T09:17:19;40.84;36.70;57.28;;
72028;Laerm;59781;52.090;5.030;2023-06-22T09:19:45;40.59;36.78;56.13;;
72028;Laerm;59781;52.090;5.030;2023-06-22T09:22:10;50.61;36.96;77.31;;
72028;Laerm;59781;52.090;5.030;2023-06-22T09:24:36;41.47;37.23;63.50;;
72028;Laerm;59781;52.090;5.030;2023-06-22T09:27:02;48.03;37.37;66.62;;
72028;Laerm;59781;52.090;5.030;2023-06-22T09:29:28;47.73;37.62;61.49;;
72028;Laerm;59781;52.090;5.030;2023-06-22T09:31:54;41.14;37.13;63.21;;
72028;Laerm;59781;52.090;5.030;2023-06-22T09:34:20;41.65;37.51;51.63;;
72028;Laerm;59781;52.090;5.030;2023-06-22T09:36:47;40.03;37.00;46.45;;
72028;Laerm;59781;52.090;5.030;2023-06-22T09:39:13;50.29;36.85;71.96;;
72028;Laerm;59781;52.090;5.030;2023-06-22T09:41:38;43.56;37.38;59.96;;
72028;Laerm;59781;52.090;5.030;2023-06-22T09:44:04;47.39;37.41;70.69;;
72028;Laerm;59781;52.090;5.030;2023-06-22T09:46:30;42.42;38.05;52.17;;
72028;Laerm;59781;52.090;5.030;2023-06-22T09:48:56;40.79;37.98;51.12;;
72028;Laerm;59781;52.090;5.030;2023-06-22T09:51:22;41.84;37.10;61.55;;
72028;Laerm;59781;52.090;5.030;2023-06-22T09:53:52;51.74;37.34;77.70;;
72028;Laerm;59781;52.090;5.030;2023-06-22T09:56:21;47.88;39.09;66.32;;
72028;Laerm;59781;52.090;5.030;2023-06-22T09:58:47;44.63;37.62;58.66;;
72028;Laerm;59781;52.090;5.030;2023-06-22T10:01:13;48.31;37.53;78.69;;
72028;Laerm;59781;52.090;5.030;2023-06-22T10:03:42;41.73;37.19;63.56;;
72028;Laerm;59781;52.090;5.030;2023-06-22T10:06:08;45.41;37.04;71.80;;
72028;Laerm;59781;52.090;5.030;2023-06-22T10:08:37;40.44;37.24;59.31;;
72028;Laerm;59781;52.090;5.030;2023-06-22T10:11:03;48.04;38.02;71.90;;
72028;Laerm;59781;52.090;5.030;2023-06-22T10:13:29;46.96;37.03;69.48;;
72028;Laerm;59781;52.090;5.030;2023-06-22T10:15:55;42.68;37.88;55.54;;
72028;Laerm;59781;52.090;5.030;2023-06-22T10:18:21;44.55;38.47;62.55;;
72028;Laerm;59781;52.090;5.030;2023-06-22T10:20:49;41.45;37.77;56.32;;
72028;Laerm;59781;52.090;5.030;2023-06-22T10:23:19;40.61;37.24;47.26;;
72028;Laerm;59781;52.090;5.030;2023-06-22T10:25:45;42.29;37.66;60.75;;
72028;Laerm;59781;52.090;5.030;2023-06-22T10:28:12;44.04;37.74;64.81;;
72028;Laerm;59781;52.090;5.030;2023-06-22T10:30:39;42.45;37.35;53.61;;
72028;Laerm;59781;52.090;5.030;2023-06-22T10:33:08;45.09;37.44;64.39;;
72028;Laerm;59781;52.090;5.030;2023-06-22T10:35:34;48.36;37.66;68.24;;
72028;Laerm;59781;52.090;5.030;2023-06-22T10:38:00;45.68;36.91;68.33;;
72028;Laerm;59781;52.090;5.030;2023-06-22T10:40:26;51.32;36.91;85.37;;
72028;Laerm;59781;52.090;5.030;2023-06-22T10:42:51;45.47;36.37;71.83;;
72028;Laerm;59781;52.090;5.030;2023-06-22T10:45:17;43.14;36.95;52.56;;
72028;Laerm;59781;52.090;5.030;2023-06-22T10:47:43;41.47;38.25;51.11;;
72028;Laerm;59781;52.090;5.030;2023-06-22T10:50:09;41.85;37.52;51.83;;
72028;Laerm;59781;52.090;5.030;2023-06-22T10:52:35;40.46;36.81;49.71;;
72028;Laerm;59781;52.090;5.030;2023-06-22T10:55:00;40.27;37.37;56.54;;
72028;Laerm;59781;52.090;5.030;2023-06-22T10:57:26;42.52;38.20;56.74;;
72028;Laerm;59781;52.090;5.030;2023-06-22T10:59:52;48.47;37.35;64.47;;
72028;Laerm;59781;52.090;5.030;2023-06-22T11:02:17;45.01;37.23;57.79;;
72028;Laerm;59781;52.090;5.030;2023-06-22T11:04:43;39.73;36.65;51.03;;
72028;Laerm;59781;52.090;5.030;2023-06-22T11:07:09;39.83;37.03;49.13;;
72028;Laerm;59781;52.090;5.030;2023-06-22T11:09:35;41.97;36.71;63.52;;
72028;Laerm;59781;52.090;5.030;2023-06-22T11:12:01;39.92;36.89;55.97;;
72028;Laerm;59781;52.090;5.030;2023-06-22T11:14:26;43.27;36.63;53.96;;
72028;Laerm;59781;52.090;5.030;2023-06-22T11:16:52;42.79;37.14;71.63;;
72028;Laerm;59781;52.090;5.030;2023-06-22T11:19:18;41.04;37.01;59.17;;
72028;Laerm;59781;52.090;5.030;2023-06-22T11:21:44;42.46;37.51;64.34;;
72028;Laerm;59781;52.090;5.030;2023-06-22T11:24:10;42.06;37.57;58.55;;
72028;Laerm;59781;52.090;5.030;2023-06-22T11:26:36;45.67;37.49;67.82;;
72028;Laerm;59781;52.090;5.030;2023-06-22T11:29:02;43.56;37.05;66.92;;
72028;Laerm;59781;52.090;5.030;2023-06-22T11:31:32;40.57;38.02;51.77;;
72028;Laerm;59781;52.090;5.030;2023-06-22T11:33:58;40.57;37.62;46.86;;
72028;Laerm;59781;52.090;5.030;2023-06-22T11:36:23;40.67;37.01;50.36;;
72028;Laerm;59781;52.090;5.030;2023-06-22T11:38:50;42.27;38.47;58.29;;
72028;Laerm;59781;52.090;5.030;2023-06-22T11:41:17;40.02;37.19;55.92;;
72028;Laerm;59781;52.090;5.030;2023-06-22T11:43:42;40.75;37.42;56.32;;
72028;Laerm;59781;52.090;5.030;2023-06-22T11:46:08;40.99;37.59;53.80;;
72028;Laerm;59781;52.090;5.030;2023-06-22T11:48:34;41.72;38.42;62.58;;
72028;Laerm;59781;52.090;5.030;2023-06-22T11:51:00;44.85;38.69;66.41;;
72028;Laerm;59781;52.090;5.030;2023-06-22T11:53:27;42.35;38.71;54.05;;
72028;Laerm;59781;52.090;5.030;2023-06-22T11:55:53;41.38;38.23;50.70;;
72028;Laerm;59781;52.090;5.030;2023-06-22T11:58:19;40.99;37.25;52.04;;
72028;Laerm;59781;52.090;5.030;2023-06-22T12:00:45;43.18;37.23;52.57;;
72028;Laerm;59781;52.090;5.030;2023-06-22T12:03:11;40.31;37.65;45.54;;
72028;Laerm;59781;52.090;5.030;2023-06-22T12:05:38;40.98;37.95;46.69;;
72028;Laerm;59781;52.090;5.030;2023-06-22T12:08:04;40.97;37.61;45.19;;
72028;Laerm;59781;52.090;5.030;2023-06-22T12:10:30;41.02;37.43;53.46;;
72028;Laerm;59781;52.090;5.030;2023-06-22T12:12:56;42.26;37.73;52.41;;
72028;Laerm;59781;52.090;5.030;2023-06-22T12:15:26;41.64;37.79;49.94;;
72028;Laerm;59781;52.090;5.030;2023-06-22T12:17:52;41.68;37.99;62.39;;
72028;Laerm;59781;52.090;5.030;2023-06-22T12:20:19;41.69;37.52;53.00;;
72028;Laerm;59781;52.090;5.030;2023-06-22T12:22:45;41.36;37.41;64.34;;
72028;Laerm;59781;52.090;5.030;2023-06-22T12:25:11;42.88;38.97;57.54;;
72028;Laerm;59781;52.090;5.030;2023-06-22T12:27:37;43.43;38.16;63.37;;
72028;Laerm;59781;52.090;5.030;2023-06-22T12:30:04;41.14;38.37;56.47;;
72028;Laerm;59781;52.090;5.030;2023-06-22T12:32:30;41.80;38.43;52.00;;
72028;Laerm;59781;52.090;5.030;2023-06-22T12:34:57;41.24;38.02;52.79;;
72028;Laerm;59781;52.090;5.030;2023-06-22T12:37:23;42.59;39.17;61.50;;
72028;Laerm;59781;52.090;5.030;2023-06-22T12:39:49;42.45;38.19;58.28;;
72028;Laerm;59781;52.090;5.030;2023-06-22T12:42:16;41.99;38.00;58.68;;
72028;Laerm;59781;52.090;5.030;2023-06-22T12:44:42;48.54;38.80;63.43;;
72028;Laerm;59781;52.090;5.030;2023-06-22T12:47:09;41.37;38.08;56.04;;
72028;Laerm;59781;52.090;5.030;2023-06-22T12:49:35;42.88;38.88;55.69;;
72028;Laerm;59781;52.090;5.030;2023-06-22T12:52:02;42.23;38.84;52.05;;
72028;Laerm;59781;52.090;5.030;2023-06-22T12:54:29;43.27;39.79;64.40;;
72028;Laerm;59781;52.090;5.030;2023-06-22T12:56:55;42.64;39.20;57.81;;
72028;Laerm;59781;52.090;5.030;2023-06-22T12:59:21;41.68;38.61;52.46;;
72028;Laerm;59781;52.090;5.030;2023-06-22T13:01:47;44.05;39.87;62.32;;
72028;Laerm;59781;52.090;5.030;2023-06-22T13:04:13;43.94;40.31;59.57;;
72028;Laerm;59781;52.090;5.030;2023-06-22T13:06:41;44.54;40.90;64.70;;
72028;Laerm;59781;52.090;5.030;2023-06-22T13:09:09;44.97;39.91;70.28;;
72028;Laerm;59781;52.090;5.030;2023-06-22T13:11:35;43.57;39.39;58.04;;
72028;Laerm;59781;52.090;5.030;2023-06-22T13:14:01;45.44;41.23;70.22;;
72028;Laerm;59781;52.090;5.030;2023-06-22T13:16:27;46.69;41.71;68.40;;
72028;Laerm;59781;52.090;5.030;2023-06-22T13:18:52;45.20;41.26;70.29;;
72028;Laerm;59781;52.090;5.030;2023-06-22T13:21:18;45.66;41.92;67.34;;
72028;Laerm;59781;52.090;5.030;2023-06-22T13:23:44;46.65;41.78;71.18;;
72028;Laerm;59781;52.090;5.030;2023-06-22T13:26:09;48.58;42.22;61.63;;
72028;Laerm;59781;52.090;5.030;2023-06-22T13:28:35;44.04;40.66;64.47;;
72028;Laerm;59781;52.090;5.030;2023-06-22T13:31:00;44.70;40.73;55.34;;
72028;Laerm;59781;52.090;5.030;2023-06-22T13:33:26;45.59;41.78;68.31;;
72028;Laerm;59781;52.090;5.030;2023-06-22T13:35:52;47.34;41.84;66.26;;
72028;Laerm;59781;52.090;5.030;2023-06-22T13:38:17;46.82;42.43;70.25;;
72028;Laerm;59781;52.090;5.030;2023-06-22T13:40:43;48.83;44.14;59.62;;
72028;Laerm;59781;52.090;5.030;2023-06-22T13:43:09;48.63;44.91;68.94;;
72028;Laerm;59781;52.090;5.030;2023-06-22T13:45:35;49.63;45.58;69.24;;
72028;Laerm;59781;52.090;5.030;2023-06-22T13:48:01;50.46;47.27;66.94;;
72028;Laerm;59781;52.090;5.030;2023-06-22T13:50:27;50.31;46.59;68.12;;